Time,TemperatureF,DewpointF,PressureIn,WindDirection,WindDirectionDegrees,WindSpeedMPH,WindSpeedGustMPH,Humidity,HourlyPrecipIn,Conditions,Clouds,dailyrainin,SoftwareType,DateUTC
2013-06-03 00:00:00,70.1,69.0,29.78,NW,318,0.0,0.0,96,0.08,,,0.31,weatherlink.com 1.10,2013-06-03 04:00:00,
2013-06-03 00:10:00,70.2,69.3,29.79,NW,318,0.0,0.0,97,0.05,,,0.00,Wunderground v.1.15,2013-06-03 04:10:00,
2013-06-03 00:16:00,70.3,69.0,29.78,NW,318,0.0,1.0,97,0.07,,,0.01,weatherlink.com 1.10,2013-06-03 04:16:00,
2013-06-03 00:20:00,70.4,69.5,29.78,NW,318,0.0,0.0,97,0.05,,,0.01,Wunderground v.1.15,2013-06-03 04:20:00,
2013-06-03 00:30:00,70.4,69.2,29.78,SSW,194,1.0,1.0,96,0.06,,,0.02,Wunderground v.1.15,2013-06-03 04:30:00,
2013-06-03 00:40:00,69.8,68.6,29.79,SSW,194,0.0,0.0,96,0.00,,,0.03,Wunderground v.1.15,2013-06-03 04:40:00,
2013-06-03 00:45:00,69.6,69.0,29.78,South,188,0.0,2.0,96,0.05,,,0.03,weatherlink.com 1.10,2013-06-03 04:45:00,
2013-06-03 01:00:00,69.2,68.0,29.78,South,188,0.0,0.0,96,0.04,,,0.04,Wunderground v.1.15,2013-06-03 05:00:00,
2013-06-03 01:10:00,69.2,68.0,29.78,South,188,0.0,0.0,96,0.04,,,0.04,Wunderground v.1.15,2013-06-03 05:10:00,
2013-06-03 01:16:00,69.1,68.0,29.78,South,188,0.0,0.0,96,0.03,,,0.04,weatherlink.com 1.10,2013-06-03 05:16:00,
2013-06-03 01:30:00,69.0,67.8,29.77,South,188,0.0,0.0,96,0.00,,,0.04,Wunderground v.1.15,2013-06-03 05:30:00,
2013-06-03 01:40:00,68.9,67.7,29.78,South,188,0.0,0.0,96,0.00,,,0.05,Wunderground v.1.15,2013-06-03 05:40:00,
2013-06-03 01:50:00,68.9,68.0,29.78,South,188,0.0,0.0,97,0.00,,,0.05,Wunderground v.1.15,2013-06-03 05:50:00,
2013-06-03 02:00:00,68.9,68.0,29.79,South,188,0.0,0.0,97,0.00,,,0.05,Wunderground v.1.15,2013-06-03 06:00:00,
2013-06-03 02:10:00,68.8,67.9,29.79,South,188,0.0,0.0,97,0.00,,,0.06,Wunderground v.1.15,2013-06-03 06:10:00,
2013-06-03 02:17:00,68.6,68.0,29.79,South,188,0.0,0.0,96,0.02,,,0.06,weatherlink.com 1.10,2013-06-03 06:17:00,
2013-06-03 02:30:00,68.5,67.3,29.79,South,188,0.0,0.0,96,0.00,,,0.06,Wunderground v.1.15,2013-06-03 06:30:00,
2013-06-03 02:40:00,68.3,67.4,29.79,South,188,0.0,0.0,97,0.00,,,0.06,Wunderground v.1.15,2013-06-03 06:40:00,
2013-06-03 02:47:00,68.3,68.0,29.79,South,188,0.0,0.0,97,0.01,,,0.06,weatherlink.com 1.10,2013-06-03 06:47:00,
2013-06-03 03:00:00,68.5,67.6,29.79,South,188,0.0,0.0,97,0.00,,,0.07,Wunderground v.1.15,2013-06-03 07:00:00,
2013-06-03 03:10:00,68.6,67.7,29.78,South,188,0.0,0.0,97,0.00,,,0.08,Wunderground v.1.15,2013-06-03 07:10:00,
2013-06-03 03:17:00,68.7,68.0,29.78,South,188,0.0,1.0,97,0.02,,,0.08,weatherlink.com 1.10,2013-06-03 07:17:00,
2013-06-03 03:30:00,68.6,67.7,29.78,West,269,0.0,0.0,97,0.00,,,0.08,Wunderground v.1.15,2013-06-03 07:30:00,
2013-06-03 03:40:00,68.4,67.5,29.78,WNW,285,0.0,0.0,97,0.00,,,0.09,Wunderground v.1.15,2013-06-03 07:40:00,
2013-06-03 03:47:00,68.3,68.0,29.78,WNW,290,0.0,2.0,97,0.04,,,0.10,weatherlink.com 1.10,2013-06-03 07:47:00,
2013-06-03 04:00:00,68.1,67.2,29.78,WNW,282,0.0,0.0,97,0.07,,,0.11,Wunderground v.1.15,2013-06-03 08:00:00,
2013-06-03 04:10:00,68.0,67.1,29.78,West,271,0.0,0.0,97,0.07,,,0.12,Wunderground v.1.15,2013-06-03 08:10:00,
2013-06-03 04:17:00,68.0,67.0,29.78,West,272,0.0,2.0,97,0.05,,,0.13,weatherlink.com 1.10,2013-06-03 08:17:00,
2013-06-03 04:30:00,67.9,67.0,29.78,West,272,0.0,0.0,97,0.06,,,0.15,Wunderground v.1.15,2013-06-03 08:30:00,
2013-06-03 04:40:00,67.9,67.0,29.77,West,272,0.0,0.0,97,0.09,,,0.16,Wunderground v.1.15,2013-06-03 08:40:00,
2013-06-03 04:47:00,67.8,67.0,29.77,West,272,0.0,0.0,97,0.08,,,0.18,weatherlink.com 1.10,2013-06-03 08:47:00,
2013-06-03 05:00:00,67.7,66.8,29.77,West,272,0.0,0.0,97,0.07,,,0.19,Wunderground v.1.15,2013-06-03 09:00:00,
2013-06-03 05:10:00,67.7,66.8,29.77,West,272,0.0,0.0,97,0.07,,,0.20,Wunderground v.1.15,2013-06-03 09:10:00,
2013-06-03 05:18:00,67.7,67.0,29.77,West,272,0.0,1.0,97,0.08,,,0.22,weatherlink.com 1.10,2013-06-03 09:18:00,
2013-06-03 05:30:00,67.7,66.8,29.77,West,272,0.0,0.0,97,0.06,,,0.23,Wunderground v.1.15,2013-06-03 09:30:00,
2013-06-03 05:40:00,67.7,66.8,29.77,West,272,0.0,0.0,97,0.08,,,0.24,Wunderground v.1.15,2013-06-03 09:40:00,
2013-06-03 05:48:00,67.7,67.0,29.78,West,272,0.0,0.0,97,0.07,,,0.25,weatherlink.com 1.10,2013-06-03 09:48:00,
2013-06-03 06:00:00,67.8,66.9,29.78,West,272,0.0,0.0,97,0.07,,,0.26,Wunderground v.1.15,2013-06-03 10:00:00,
2013-06-03 06:10:00,67.9,67.0,29.78,West,272,0.0,0.0,97,0.04,,,0.27,Wunderground v.1.15,2013-06-03 10:10:00,
2013-06-03 06:18:00,67.9,67.0,29.78,West,272,0.0,0.0,97,0.05,,,0.27,weatherlink.com 1.10,2013-06-03 10:18:00,
2013-06-03 06:30:00,67.9,67.0,29.79,West,272,0.0,0.0,97,0.06,,,0.28,Wunderground v.1.15,2013-06-03 10:30:00,
2013-06-03 06:40:00,67.9,67.0,29.79,West,272,0.0,0.0,97,0.04,,,0.29,Wunderground v.1.15,2013-06-03 10:40:00,
2013-06-03 06:48:00,67.9,67.0,29.79,West,272,0.0,0.0,97,0.05,,,0.30,weatherlink.com 1.10,2013-06-03 10:48:00,
2013-06-03 07:00:00,68.0,67.1,29.79,West,272,0.0,0.0,97,0.04,,,0.30,Wunderground v.1.15,2013-06-03 11:00:00,
2013-06-03 07:10:00,68.1,67.2,29.79,West,272,0.0,0.0,97,0.04,,,0.31,Wunderground v.1.15,2013-06-03 11:10:00,
2013-06-03 07:18:00,68.1,67.0,29.79,West,272,0.0,1.0,97,0.05,,,0.32,weatherlink.com 1.10,2013-06-03 11:18:00,
2013-06-03 07:30:00,68.1,67.2,29.79,West,272,0.0,0.0,97,0.05,,,0.33,Wunderground v.1.15,2013-06-03 11:30:00,
2013-06-03 07:40:00,68.2,67.3,29.79,West,272,0.0,0.0,97,0.07,,,0.34,Wunderground v.1.15,2013-06-03 11:40:00,
2013-06-03 07:49:00,68.0,67.0,29.79,West,272,1.0,2.0,97,0.05,,,0.35,weatherlink.com 1.10,2013-06-03 11:49:00,
2013-06-03 08:00:00,67.9,67.0,29.80,West,272,0.0,0.0,97,0.07,,,0.36,Wunderground v.1.15,2013-06-03 12:00:00,
2013-06-03 08:10:00,67.6,66.7,29.80,West,272,0.0,0.0,97,0.04,,,0.37,Wunderground v.1.15,2013-06-03 12:10:00,
2013-06-03 08:20:00,67.6,67.0,29.80,West,272,0.0,0.0,97,0.06,,,0.38,weatherlink.com 1.10,2013-06-03 12:20:00,
2013-06-03 08:30:00,67.2,66.3,29.80,NNW,344,0.0,0.0,97,0.05,,,0.38,Wunderground v.1.15,2013-06-03 12:30:00,
2013-06-03 08:40:00,65.7,64.5,29.80,NNE,17,0.0,0.0,96,0.00,,,0.39,Wunderground v.1.15,2013-06-03 12:40:00,
2013-06-03 08:49:00,65.3,64.0,29.80,NNE,17,0.0,3.0,96,0.04,,,0.39,weatherlink.com 1.10,2013-06-03 12:49:00,
2013-06-03 09:00:00,65.2,64.3,29.81,NNE,17,0.0,0.0,97,0.04,,,0.40,Wunderground v.1.15,2013-06-03 13:00:00,
2013-06-03 09:10:00,65.1,63.9,29.82,NNE,17,0.0,0.0,96,0.00,,,0.41,Wunderground v.1.15,2013-06-03 13:10:00,
2013-06-03 09:20:00,65.1,64.0,29.82,NNE,17,0.0,1.0,97,0.03,,,0.41,weatherlink.com 1.10,2013-06-03 13:20:00,
2013-06-03 09:30:00,65.4,64.5,29.82,NNE,17,0.0,0.0,97,0.04,,,0.42,Wunderground v.1.15,2013-06-03 13:30:00,
2013-06-03 09:40:00,65.3,64.1,29.82,NNE,17,0.0,0.0,96,0.04,,,0.42,Wunderground v.1.15,2013-06-03 13:40:00,
2013-06-03 09:50:00,65.6,64.7,29.82,NNE,17,0.0,0.0,97,0.00,,,0.43,Wunderground v.1.15,2013-06-03 13:50:00,
2013-06-03 10:00:00,65.8,64.9,29.82,NNE,17,0.0,0.0,97,0.00,,,0.43,Wunderground v.1.15,2013-06-03 14:00:00,
2013-06-03 10:10:00,66.2,65.3,29.81,NNE,17,0.0,0.0,97,0.00,,,0.44,Wunderground v.1.15,2013-06-03 14:10:00,
2013-06-03 10:19:00,66.6,66.0,29.81,NNE,17,0.0,0.0,97,0.03,,,0.44,weatherlink.com 1.10,2013-06-03 14:19:00,
2013-06-03 10:30:00,67.0,65.8,29.81,NNE,17,0.0,0.0,96,0.00,,,0.44,Wunderground v.1.15,2013-06-03 14:30:00,
2013-06-03 10:35:00,67.0,66.0,29.81,NNE,17,0.0,1.0,96,0.03,,,0.45,weatherlink.com 1.10,2013-06-03 14:35:00,
2013-06-03 10:50:00,67.5,66.3,29.81,NNE,17,0.0,0.0,96,0.00,,,0.45,Wunderground v.1.15,2013-06-03 14:50:00,
2013-06-03 11:00:00,68.0,66.5,29.81,NNE,17,0.0,0.0,95,0.00,,,0.45,Wunderground v.1.15,2013-06-03 15:00:00,
2013-06-03 11:10:00,68.6,66.8,29.81,NNE,17,0.0,0.0,94,0.00,,,0.46,Wunderground v.1.15,2013-06-03 15:10:00,
2013-06-03 11:20:00,69.3,67.0,29.81,ESE,119,0.0,3.0,93,0.02,,,0.46,weatherlink.com 1.10,2013-06-03 15:20:00,
2013-06-03 11:30:00,69.7,67.3,29.81,ESE,119,0.0,0.0,92,0.00,,,0.46,Wunderground v.1.15,2013-06-03 15:30:00,
2013-06-03 11:35:00,69.6,67.0,29.82,ESE,119,0.0,0.0,92,0.01,,,0.46,weatherlink.com 1.10,2013-06-03 15:35:00,
2013-06-03 11:50:00,69.5,66.8,29.82,ESE,119,0.0,0.0,91,0.00,,,0.47,Wunderground v.1.15,2013-06-03 15:50:00,
2013-06-03 12:00:00,69.4,67.0,29.82,ESE,123,0.0,0.0,92,0.00,,,0.47,Wunderground v.1.15,2013-06-03 16:00:00,
2013-06-03 12:10:00,69.6,66.9,29.82,SE,134,0.0,0.0,91,0.00,,,0.48,Wunderground v.1.15,2013-06-03 16:10:00,
2013-06-03 12:20:00,70.1,67.0,29.82,SE,135,0.0,0.0,90,0.00,,,0.48,Wunderground v.1.15,2013-06-03 16:20:00,
2013-06-03 12:30:00,70.2,66.8,29.82,SE,142,0.0,0.0,89,0.00,,,0.48,Wunderground v.1.15,2013-06-03 16:30:00,
2013-06-03 12:36:00,70.5,68.0,29.81,South,180,3.0,3.0,90,0.02,,,0.48,weatherlink.com 1.10,2013-06-03 16:36:00,
2013-06-03 12:50:00,71.4,67.0,29.80,SE,136,0.0,0.0,86,0.00,,,0.49,Wunderground v.1.15,2013-06-03 16:50:00,
2013-06-03 13:00:00,72.4,68.0,29.80,South,169,0.0,0.0,86,0.00,,,0.50,Wunderground v.1.15,2013-06-03 17:00:00,
2013-06-03 13:06:00,73.3,69.0,29.80,SSE,167,0.0,1.0,85,0.02,,,0.50,weatherlink.com 1.10,2013-06-03 17:06:00,
2013-06-03 13:20:00,74.9,67.6,29.80,South,188,0.0,3.0,78,0.00,,,0.50,Wunderground v.1.15,2013-06-03 17:20:00,
2013-06-03 13:30:00,75.7,67.6,29.79,WSW,257,0.0,0.0,76,0.00,,,0.50,Wunderground v.1.15,2013-06-03 17:30:00,
2013-06-03 13:37:00,76.0,68.0,29.79,West,263,0.0,3.0,75,0.01,,,0.50,weatherlink.com 1.10,2013-06-03 17:37:00,
2013-06-03 13:50:00,76.3,68.2,29.79,West,270,0.0,0.0,76,0.00,,,0.50,Wunderground v.1.15,2013-06-03 17:50:00,
2013-06-03 14:00:00,75.9,68.2,29.78,West,270,0.0,0.0,77,0.00,,,0.50,Wunderground v.1.15,2013-06-03 18:00:00,
2013-06-03 14:06:00,76.2,68.0,29.79,West,269,0.0,1.0,76,0.00,,,0.50,weatherlink.com 1.10,2013-06-03 18:06:00,
2013-06-03 14:20:00,76.9,68.8,29.79,West,266,0.0,0.0,76,0.00,,,0.50,Wunderground v.1.15,2013-06-03 18:20:00,
2013-06-03 14:30:00,76.7,67.0,29.79,West,265,0.0,0.0,72,0.00,,,0.50,Wunderground v.1.15,2013-06-03 18:30:00,
2013-06-03 14:37:00,77.3,66.0,29.79,West,277,0.0,6.0,68,0.00,,,0.50,weatherlink.com 1.10,2013-06-03 18:37:00,
2013-06-03 14:50:00,77.1,65.3,29.79,West,279,0.0,0.0,67,0.00,,,0.51,Wunderground v.1.15,2013-06-03 18:50:00,
2013-06-03 15:00:00,76.8,65.0,29.79,West,278,0.0,0.0,67,0.00,,,0.51,Wunderground v.1.15,2013-06-03 19:00:00,
2013-06-03 15:08:00,77.1,65.0,29.79,West,271,4.0,4.0,67,0.01,,,0.51,weatherlink.com 1.10,2013-06-03 19:08:00,
2013-06-03 15:20:00,77.5,65.2,29.78,WNW,282,1.0,1.0,66,0.00,,,0.51,Wunderground v.1.15,2013-06-03 19:20:00,
2013-06-03 15:30:00,77.0,64.3,29.79,West,261,0.0,0.0,65,0.00,,,0.51,Wunderground v.1.15,2013-06-03 19:30:00,
2013-06-03 15:38:00,76.9,65.0,29.79,West,261,0.0,3.0,66,0.01,,,0.51,weatherlink.com 1.10,2013-06-03 19:38:00,
2013-06-03 15:50:00,76.5,65.1,29.79,West,261,0.0,0.0,68,0.00,,,0.51,Wunderground v.1.15,2013-06-03 19:50:00,
2013-06-03 16:00:00,75.7,65.6,29.78,West,262,0.0,0.0,71,0.00,,,0.51,Wunderground v.1.15,2013-06-03 20:00:00,
2013-06-03 16:08:00,75.3,66.0,29.79,West,262,1.0,1.0,73,0.00,,,0.51,weatherlink.com 1.10,2013-06-03 20:08:00,
2013-06-03 16:20:00,74.9,66.8,29.78,West,262,0.0,0.0,76,0.00,,,0.51,Wunderground v.1.15,2013-06-03 20:20:00,
2013-06-03 16:30:00,74.9,65.7,29.78,West,262,0.0,0.0,73,0.00,,,0.51,Wunderground v.1.15,2013-06-03 20:30:00,
2013-06-03 16:37:00,74.6,65.0,29.78,West,262,0.0,1.0,73,0.00,,,0.51,weatherlink.com 1.10,2013-06-03 20:37:00,
2013-06-03 16:50:00,73.9,64.3,29.78,West,262,0.0,0.0,72,0.00,,,0.51,Wunderground v.1.15,2013-06-03 20:50:00,
2013-06-03 17:00:00,73.8,64.6,29.78,West,262,0.0,0.0,73,0.00,,,0.51,Wunderground v.1.15,2013-06-03 21:00:00,
2013-06-03 17:08:00,73.7,65.0,29.78,West,262,0.0,0.0,73,0.00,,,0.51,weatherlink.com 1.10,2013-06-03 21:08:00,
2013-06-03 17:20:00,73.3,62.5,29.78,West,269,0.0,1.0,69,0.00,,,0.51,Wunderground v.1.15,2013-06-03 21:20:00,
2013-06-03 17:30:00,73.4,62.6,29.78,West,267,0.0,0.0,69,0.00,,,0.51,Wunderground v.1.15,2013-06-03 21:30:00,
2013-06-03 17:38:00,73.4,63.0,29.78,West,267,0.0,3.0,70,0.00,,,0.51,weatherlink.com 1.10,2013-06-03 21:38:00,
2013-06-03 17:50:00,73.8,63.0,29.78,West,269,0.0,0.0,69,0.00,,,0.51,Wunderground v.1.15,2013-06-03 21:50:00,
2013-06-03 18:00:00,73.9,63.1,29.78,West,269,0.0,0.0,69,0.00,,,0.51,Wunderground v.1.15,2013-06-03 22:00:00,
2013-06-03 18:08:00,73.9,64.0,29.78,West,269,0.0,0.0,70,0.00,,,0.51,weatherlink.com 1.10,2013-06-03 22:08:00,
2013-06-03 18:20:00,73.9,63.9,29.78,West,269,0.0,0.0,71,0.00,,,0.51,Wunderground v.1.15,2013-06-03 22:20:00,
2013-06-03 18:30:00,73.7,64.9,29.78,West,269,0.0,0.0,74,0.00,,,0.51,Wunderground v.1.15,2013-06-03 22:30:00,
2013-06-03 18:38:00,73.5,64.0,29.78,West,269,0.0,1.0,72,0.00,,,0.51,weatherlink.com 1.10,2013-06-03 22:38:00,
2013-06-03 18:50:00,73.3,64.9,29.78,West,269,0.0,0.0,75,0.00,,,0.51,Wunderground v.1.15,2013-06-03 22:50:00,
2013-06-03 19:00:00,73.1,64.7,29.78,West,269,0.0,0.0,75,0.00,,,0.51,Wunderground v.1.15,2013-06-03 23:00:00,
2013-06-03 19:08:00,73.0,65.0,29.79,West,269,0.0,0.0,76,0.00,,,0.51,weatherlink.com 1.10,2013-06-03 23:08:00,
2013-06-03 19:20:00,72.8,65.2,29.79,West,269,0.0,0.0,77,0.00,,,0.51,Wunderground v.1.15,2013-06-03 23:20:00,
2013-06-03 19:30:00,72.7,64.7,29.80,West,269,0.0,0.0,76,0.00,,,0.51,Wunderground v.1.15,2013-06-03 23:30:00,
2013-06-03 19:38:00,72.6,65.0,29.80,West,269,0.0,0.0,77,0.00,,,0.51,weatherlink.com 1.10,2013-06-03 23:38:00,
2013-06-03 19:50:00,72.2,62.7,29.80,West,272,0.0,0.0,72,0.00,,,0.51,Wunderground v.1.15,2013-06-03 23:50:00,
2013-06-03 20:00:00,72.1,61.0,29.80,West,270,0.0,0.0,68,0.00,,,0.51,Wunderground v.1.15,2013-06-04 00:00:00,
2013-06-03 20:10:00,72.0,61.0,29.81,West,272,0.0,1.0,68,0.00,,,0.51,weatherlink.com 1.10,2013-06-04 00:10:00,
2013-06-03 20:20:00,71.8,60.7,29.81,West,273,0.0,0.0,68,0.00,,,0.51,Wunderground v.1.15,2013-06-04 00:20:00,
2013-06-03 20:30:00,71.5,60.0,29.81,West,275,0.0,0.0,67,0.00,,,0.51,Wunderground v.1.15,2013-06-04 00:30:00,
2013-06-03 20:39:00,71.2,60.0,29.81,West,277,0.0,2.0,67,0.00,,,0.51,weatherlink.com 1.10,2013-06-04 00:39:00,
2013-06-03 20:50:00,70.9,59.8,29.81,West,278,0.0,0.0,68,0.00,,,0.51,Wunderground v.1.15,2013-06-04 00:50:00,
2013-06-03 21:00:00,70.6,59.1,29.81,WNW,300,0.0,0.0,67,0.00,,,0.51,Wunderground v.1.15,2013-06-04 01:00:00,
2013-06-03 21:09:00,70.3,59.0,29.82,NW,309,0.0,6.0,67,0.00,,,0.51,weatherlink.com 1.10,2013-06-04 01:09:00,
2013-06-03 21:20:00,69.9,58.4,29.82,NW,308,0.0,0.0,67,0.00,,,0.51,Wunderground v.1.15,2013-06-04 01:20:00,
2013-06-03 21:25:00,69.8,58.0,29.82,WNW,287,6.0,6.0,67,0.00,,,0.51,weatherlink.com 1.10,2013-06-04 01:25:00,
2013-06-03 21:39:00,69.2,56.0,29.83,West,274,0.0,5.0,63,0.00,,,0.51,weatherlink.com 1.10,2013-06-04 01:39:00,
2013-06-03 21:50:00,68.9,55.8,29.83,WNW,301,0.0,3.0,63,0.00,,,0.51,Wunderground v.1.15,2013-06-04 01:50:00,
2013-06-03 22:00:00,68.6,55.1,29.84,WNW,297,1.0,1.0,62,0.00,,,0.51,Wunderground v.1.15,2013-06-04 02:00:00,
2013-06-03 22:10:00,68.3,54.0,29.84,West,277,0.0,9.0,61,0.00,,,0.51,weatherlink.com 1.10,2013-06-04 02:10:00,
2013-06-03 22:20:00,68.1,53.2,29.84,West,276,1.0,1.0,59,0.00,,,0.51,Wunderground v.1.15,2013-06-04 02:20:00,
2013-06-03 22:30:00,67.7,52.9,29.84,West,266,0.0,0.0,59,0.00,,,0.51,Wunderground v.1.15,2013-06-04 02:30:00,
2013-06-03 22:39:00,67.3,52.0,29.84,West,281,0.0,11.0,58,0.00,,,0.51,weatherlink.com 1.10,2013-06-04 02:39:00,
2013-06-03 22:55:00,66.7,51.0,29.84,North,349,4.0,14.0,58,0.00,,,0.51,weatherlink.com 1.10,2013-06-04 02:55:00,
2013-06-03 23:10:00,66.1,51.0,29.84,WNW,298,1.0,9.0,59,0.00,,,0.51,weatherlink.com 1.10,2013-06-04 03:10:00,
2013-06-03 23:25:00,65.5,51.0,29.84,WNW,284,0.0,4.0,60,0.00,,,0.51,weatherlink.com 1.10,2013-06-04 03:25:00,
2013-06-03 23:40:00,64.9,51.0,29.85,North,350,0.0,4.0,60,0.00,,,0.51,weatherlink.com 1.10,2013-06-04 03:40:00,
2013-06-03 23:56:00,64.4,50.0,29.86,North,355,2.0,9.0,59,0.00,,,0.51,weatherlink.com 1.10,2013-06-04 03:56:00,